Terminal Aerodrome Forecast
Issued by NWS

Home | Current Version | Previous Version | Text Only | Print | Product List | Glossary On
Versions: 1 2 3 4 5 6 7 8 9 10 11 12 13 14 15 16 17 18 19
000
FTUS42 KJAX 231720
TAFCRG
TAF
KCRG 231720Z 2318/2418 12011KT P6SM VCSH BKN040
      TEMPO 2318/2319 BKN030
     FM232300 12006KT P6SM SCT250
     FM240800 00000KT 4SM BR FEW015
     FM241000 00000KT 1SM BR BKN003
     FM241430 17007KT P6SM SCT007 SCT250=

USA.gov is the U.S. government's official web portal to all federal, state and local government web resources and services.